sensor_id;sensor_type;location;lat;lon;timestamp;P1;P2;P0
64114;PMS5003;62188;35.640;139.748;2023-07-20T00:00:28;2;2;
64114;PMS5003;62188;35.640;139.748;2023-07-20T00:03:09;2;2;
64114;PMS5003;62188;35.640;139.748;2023-07-20T00:05:19;2;2;
64114;PMS5003;62188;35.640;139.748;2023-07-20T00:07:44;2;2;
64114;PMS5003;62188;35.640;139.748;2023-07-20T00:10:09;2;2;
64114;PMS5003;62188;35.640;139.748;2023-07-20T00:12:35;2;2;
64114;PMS5003;62188;35.640;139.748;2023-07-20T00:15:00;3;3;
64114;PMS5003;62188;35.640;139.748;2023-07-20T00:17:25;2;2;
64114;PMS5003;62188;35.640;139.748;2023-07-20T00:19:51;3;3;
64114;PMS5003;62188;35.640;139.748;2023-07-20T00:22:16;4;4;
64114;PMS5003;62188;35.640;139.748;2023-07-20T00:24:41;5;5;
64114;PMS5003;62188;35.640;139.748;2023-07-20T00:27:06;4;4;
64114;PMS5003;62188;35.640;139.748;2023-07-20T00:29:31;4;3;
64114;PMS5003;62188;35.640;139.748;2023-07-20T00:31:57;3;3;
64114;PMS5003;62188;35.640;139.748;2023-07-20T00:34:22;3;3;
64114;PMS5003;62188;35.640;139.748;2023-07-20T00:36:47;3;3;
64114;PMS5003;62188;35.640;139.748;2023-07-20T00:39:13;2;2;
64114;PMS5003;62188;35.640;139.748;2023-07-20T00:41:38;4;4;
64114;PMS5003;62188;35.640;139.748;2023-07-20T00:44:04;3;3;
64114;PMS5003;62188;35.640;139.748;2023-07-20T00:46:29;4;4;
64114;PMS5003;62188;35.640;139.748;2023-07-20T00:48:54;2;2;
64114;PMS5003;62188;35.640;139.748;2023-07-20T00:51:19;4;4;
64114;PMS5003;62188;35.640;139.748;2023-07-20T00:53:44;4;3;
64114;PMS5003;62188;35.640;139.748;2023-07-20T00:56:09;2;2;
64114;PMS5003;62188;35.640;139.748;2023-07-20T00:58:35;3;3;
64114;PMS5003;62188;35.640;139.748;2023-07-20T01:01:00;4;4;
64114;PMS5003;62188;35.640;139.748;2023-07-20T01:03:25;5;5;
64114;PMS5003;62188;35.640;139.748;2023-07-20T01:05:53;5;5;
64114;PMS5003;62188;35.640;139.748;2023-07-20T01:08:17;4;4;
64114;PMS5003;62188;35.640;139.748;2023-07-20T01:10:44;3;2;
64114;PMS5003;62188;35.640;139.748;2023-07-20T01:13:06;6;6;
64114;PMS5003;62188;35.640;139.748;2023-07-20T01:15:32;5;4;
64114;PMS5003;62188;35.640;139.748;2023-07-20T01:17:57;4;4;
64114;PMS5003;62188;35.640;139.748;2023-07-20T01:20:22;6;5;
64114;PMS5003;62188;35.640;139.748;2023-07-20T01:22:55;8;6;
64114;PMS5003;62188;35.640;139.748;2023-07-20T01:32:28;4;4;
64114;PMS5003;62188;35.640;139.748;2023-07-20T01:34:54;5;5;
64114;PMS5003;62188;35.640;139.748;2023-07-20T01:37:19;6;5;
64114;PMS5003;62188;35.640;139.748;2023-07-20T01:39:44;7;6;
64114;PMS5003;62188;35.640;139.748;2023-07-20T01:42:09;6;6;
64114;PMS5003;62188;35.640;139.748;2023-07-20T01:44:34;5;4;
64114;PMS5003;62188;35.640;139.748;2023-07-20T01:47:00;5;4;
64114;PMS5003;62188;35.640;139.748;2023-07-20T01:49:27;5;4;
64114;PMS5003;62188;35.640;139.748;2023-07-20T01:51:50;5;5;
64114;PMS5003;62188;35.640;139.748;2023-07-20T01:54:16;4;4;
64114;PMS5003;62188;35.640;139.748;2023-07-20T01:56:41;6;5;
64114;PMS5003;62188;35.640;139.748;2023-07-20T01:59:06;6;5;
64114;PMS5003;62188;35.640;139.748;2023-07-20T02:01:32;4;4;
64114;PMS5003;62188;35.640;139.748;2023-07-20T02:03:57;5;5;
64114;PMS5003;62188;35.640;139.748;2023-07-20T02:06:22;5;5;
64114;PMS5003;62188;35.640;139.748;2023-07-20T02:08:48;7;7;
64114;PMS5003;62188;35.640;139.748;2023-07-20T02:11:13;6;6;
64114;PMS5003;62188;35.640;139.748;2023-07-20T02:13:38;5;5;
64114;PMS5003;62188;35.640;139.748;2023-07-20T02:16:04;5;5;
64114;PMS5003;62188;35.640;139.748;2023-07-20T02:18:29;6;6;
64114;PMS5003;62188;35.640;139.748;2023-07-20T02:20:54;7;5;
64114;PMS5003;62188;35.640;139.748;2023-07-20T02:23:20;7;6;
64114;PMS5003;62188;35.640;139.748;2023-07-20T02:25:44;6;6;
64114;PMS5003;62188;35.640;139.748;2023-07-20T02:28:11;7;7;
64114;PMS5003;62188;35.640;139.748;2023-07-20T02:30:38;6;6;
64114;PMS5003;62188;35.640;139.748;2023-07-20T02:33:00;7;7;
64114;PMS5003;62188;35.640;139.748;2023-07-20T02:35:25;7;6;
64114;PMS5003;62188;35.640;139.748;2023-07-20T02:37:51;8;6;
64114;PMS5003;62188;35.640;139.748;2023-07-20T02:40:16;9;8;
64114;PMS5003;62188;35.640;139.748;2023-07-20T02:42:41;9;9;
64114;PMS5003;62188;35.640;139.748;2023-07-20T02:45:07;8;8;
64114;PMS5003;62188;35.640;139.748;2023-07-20T02:47:32;13;9;
64114;PMS5003;62188;35.640;139.748;2023-07-20T02:49:57;9;9;
64114;PMS5003;62188;35.640;139.748;2023-07-20T02:52:23;9;9;
64114;PMS5003;62188;35.640;139.748;2023-07-20T02:54:48;10;9;
64114;PMS5003;62188;35.640;139.748;2023-07-20T02:57:14;11;11;
64114;PMS5003;62188;35.640;139.748;2023-07-20T02:59:39;12;12;
64114;PMS5003;62188;35.640;139.748;2023-07-20T03:02:04;11;11;
64114;PMS5003;62188;35.640;139.748;2023-07-20T03:04:30;13;13;
64114;PMS5003;62188;35.640;139.748;2023-07-20T03:06:54;12;11;
64114;PMS5003;62188;35.640;139.748;2023-07-20T03:09:20;12;11;
64114;PMS5003;62188;35.640;139.748;2023-07-20T03:11:45;13;11;
64114;PMS5003;62188;35.640;139.748;2023-07-20T03:14:10;13;12;
64114;PMS5003;62188;35.640;139.748;2023-07-20T03:16:36;10;10;
64114;PMS5003;62188;35.640;139.748;2023-07-20T03:19:01;9;9;
64114;PMS5003;62188;35.640;139.748;2023-07-20T03:21:26;8;8;
64114;PMS5003;62188;35.640;139.748;2023-07-20T03:23:51;9;8;
64114;PMS5003;62188;35.640;139.748;2023-07-20T03:26:17;7;6;
64114;PMS5003;62188;35.640;139.748;2023-07-20T03:28:42;7;7;
64114;PMS5003;62188;35.640;139.748;2023-07-20T03:31:07;11;8;
64114;PMS5003;62188;35.640;139.748;2023-07-20T03:33:33;9;7;
64114;PMS5003;62188;35.640;139.748;2023-07-20T03:35:58;8;7;
64114;PMS5003;62188;35.640;139.748;2023-07-20T03:38:24;9;8;
64114;PMS5003;62188;35.640;139.748;2023-07-20T03:40:50;7;6;
64114;PMS5003;62188;35.640;139.748;2023-07-20T03:43:14;5;5;
64114;PMS5003;62188;35.640;139.748;2023-07-20T03:45:39;6;5;
64114;PMS5003;62188;35.640;139.748;2023-07-20T03:48:04;5;5;
64114;PMS5003;62188;35.640;139.748;2023-07-20T03:50:29;6;6;
64114;PMS5003;62188;35.640;139.748;2023-07-20T03:52:55;7;5;
64114;PMS5003;62188;35.640;139.748;2023-07-20T03:55:20;6;6;
64114;PMS5003;62188;35.640;139.748;2023-07-20T03:57:45;5;5;
64114;PMS5003;62188;35.640;139.748;2023-07-20T04:00:11;6;6;
64114;PMS5003;62188;35.640;139.748;2023-07-20T04:02:36;6;4;
64114;PMS5003;62188;35.640;139.748;2023-07-20T04:05:01;8;7;
64114;PMS5003;62188;35.640;139.748;2023-07-20T04:07:26;6;6;
64114;PMS5003;62188;35.640;139.748;2023-07-20T04:09:52;6;6;
64114;PMS5003;62188;35.640;139.748;2023-07-20T04:12:17;7;7;
64114;PMS5003;62188;35.640;139.748;2023-07-20T04:14:42;7;7;
64114;PMS5003;62188;35.640;139.748;2023-07-20T04:17:09;6;5;
64114;PMS5003;62188;35.640;139.748;2023-07-20T04:19:33;6;5;
64114;PMS5003;62188;35.640;139.748;2023-07-20T04:21:58;6;6;
64114;PMS5003;62188;35.640;139.748;2023-07-20T04:24:23;6;6;
64114;PMS5003;62188;35.640;139.748;2023-07-20T04:26:50;5;5;
64114;PMS5003;62188;35.640;139.748;2023-07-20T04:29:14;5;5;
64114;PMS5003;62188;35.640;139.748;2023-07-20T04:31:39;5;5;
64114;PMS5003;62188;35.640;139.748;2023-07-20T04:34:04;5;5;
64114;PMS5003;62188;35.640;139.748;2023-07-20T04:36:29;6;6;
64114;PMS5003;62188;35.640;139.748;2023-07-20T04:38:54;6;6;
64114;PMS5003;62188;35.640;139.748;2023-07-20T04:41:20;6;6;
64114;PMS5003;62188;35.640;139.748;2023-07-20T04:43:45;6;5;
64114;PMS5003;62188;35.640;139.748;2023-07-20T04:46:12;6;6;
64114;PMS5003;62188;35.640;139.748;2023-07-20T04:48:37;5;5;
64114;PMS5003;62188;35.640;139.748;2023-07-20T04:51:02;6;6;
64114;PMS5003;62188;35.640;139.748;2023-07-20T04:53:26;5;5;
64114;PMS5003;62188;35.640;139.748;2023-07-20T04:55:52;7;7;
64114;PMS5003;62188;35.640;139.748;2023-07-20T04:58:17;7;7;
64114;PMS5003;62188;35.640;139.748;2023-07-20T05:00:42;7;7;
64114;PMS5003;62188;35.640;139.748;2023-07-20T05:03:08;6;6;
64114;PMS5003;62188;35.640;139.748;2023-07-20T05:05:33;7;7;
64114;PMS5003;62188;35.640;139.748;2023-07-20T05:07:58;7;7;
64114;PMS5003;62188;35.640;139.748;2023-07-20T05:10:24;7;7;
64114;PMS5003;62188;35.640;139.748;2023-07-20T05:12:49;6;6;
64114;PMS5003;62188;35.640;139.748;2023-07-20T05:15:15;7;7;
64114;PMS5003;62188;35.640;139.748;2023-07-20T05:17:40;8;8;
64114;PMS5003;62188;35.640;139.748;2023-07-20T05:20:05;8;8;
64114;PMS5003;62188;35.640;139.748;2023-07-20T05:22:30;8;7;
64114;PMS5003;62188;35.640;139.748;2023-07-20T05:24:57;8;8;
64114;PMS5003;62188;35.640;139.748;2023-07-20T05:27:21;10;10;
64114;PMS5003;62188;35.640;139.748;2023-07-20T05:29:46;7;7;
64114;PMS5003;62188;35.640;139.748;2023-07-20T05:32:12;7;7;
64114;PMS5003;62188;35.640;139.748;2023-07-20T05:34:37;7;7;
64114;PMS5003;62188;35.640;139.748;2023-07-20T05:37:02;8;8;
64114;PMS5003;62188;35.640;139.748;2023-07-20T05:39:27;7;7;
64114;PMS5003;62188;35.640;139.748;2023-07-20T05:41:53;7;7;
64114;PMS5003;62188;35.640;139.748;2023-07-20T05:44:18;9;8;
64114;PMS5003;62188;35.640;139.748;2023-07-20T05:46:43;7;7;
64114;PMS5003;62188;35.640;139.748;2023-07-20T05:49:09;8;8;
64114;PMS5003;62188;35.640;139.748;2023-07-20T05:51:34;7;6;
64114;PMS5003;62188;35.640;139.748;2023-07-20T05:53:59;5;5;
64114;PMS5003;62188;35.640;139.748;2023-07-20T05:56:25;7;6;
64114;PMS5003;62188;35.640;139.748;2023-07-20T05:58:50;6;6;
64114;PMS5003;62188;35.640;139.748;2023-07-20T06:01:16;5;5;
64114;PMS5003;62188;35.640;139.748;2023-07-20T06:03:40;6;6;
64114;PMS5003;62188;35.640;139.748;2023-07-20T06:06:06;8;7;
64114;PMS5003;62188;35.640;139.748;2023-07-20T06:08:31;6;6;
64114;PMS5003;62188;35.640;139.748;2023-07-20T06:10:56;7;7;
64114;PMS5003;62188;35.640;139.748;2023-07-20T06:13:21;6;6;
64114;PMS5003;62188;35.640;139.748;2023-07-20T06:15:46;6;6;
64114;PMS5003;62188;35.640;139.748;2023-07-20T06:18:11;6;6;
64114;PMS5003;62188;35.640;139.748;2023-07-20T06:20:37;10;10;
64114;PMS5003;62188;35.640;139.748;2023-07-20T06:23:03;8;8;
64114;PMS5003;62188;35.640;139.748;2023-07-20T06:25:28;8;8;
64114;PMS5003;62188;35.640;139.748;2023-07-20T06:27:59;8;7;
64114;PMS5003;62188;35.640;139.748;2023-07-20T06:30:18;6;6;
64114;PMS5003;62188;35.640;139.748;2023-07-20T06:32:43;8;5;
64114;PMS5003;62188;35.640;139.748;2023-07-20T06:35:09;7;7;
64114;PMS5003;62188;35.640;139.748;2023-07-20T06:37:34;8;7;
64114;PMS5003;62188;35.640;139.748;2023-07-20T06:39:59;6;6;
64114;PMS5003;62188;35.640;139.748;2023-07-20T06:42:24;7;7;
64114;PMS5003;62188;35.640;139.748;2023-07-20T06:44:50;8;8;
64114;PMS5003;62188;35.640;139.748;2023-07-20T06:47:16;9;9;
64114;PMS5003;62188;35.640;139.748;2023-07-20T06:49:40;8;7;
64114;PMS5003;62188;35.640;139.748;2023-07-20T06:52:06;8;7;
64114;PMS5003;62188;35.640;139.748;2023-07-20T06:54:31;7;7;
64114;PMS5003;62188;35.640;139.748;2023-07-20T06:56:56;11;11;
64114;PMS5003;62188;35.640;139.748;2023-07-20T06:59:21;6;6;
64114;PMS5003;62188;35.640;139.748;2023-07-20T07:01:47;8;8;
64114;PMS5003;62188;35.640;139.748;2023-07-20T07:04:12;8;8;
64114;PMS5003;62188;35.640;139.748;2023-07-20T07:06:37;6;6;
64114;PMS5003;62188;35.640;139.748;2023-07-20T07:09:03;8;8;
64114;PMS5003;62188;35.640;139.748;2023-07-20T07:11:28;8;8;
64114;PMS5003;62188;35.640;139.748;2023-07-20T07:13:53;7;7;
64114;PMS5003;62188;35.640;139.748;2023-07-20T07:16:19;7;7;
64114;PMS5003;62188;35.640;139.748;2023-07-20T07:18:44;7;6;
64114;PMS5003;62188;35.640;139.748;2023-07-20T07:21:10;6;5;
64114;PMS5003;62188;35.640;139.748;2023-07-20T07:23:35;6;6;
64114;PMS5003;62188;35.640;139.748;2023-07-20T07:26:01;5;5;
64114;PMS5003;62188;35.640;139.748;2023-07-20T07:28:25;6;5;
64114;PMS5003;62188;35.640;139.748;2023-07-20T07:30:52;7;6;
64114;PMS5003;62188;35.640;139.748;2023-07-20T07:33:16;6;6;
64114;PMS5003;62188;35.640;139.748;2023-07-20T07:35:41;6;6;
64114;PMS5003;62188;35.640;139.748;2023-07-20T07:38:06;6;6;
64114;PMS5003;62188;35.640;139.748;2023-07-20T07:40:32;7;7;
64114;PMS5003;62188;35.640;139.748;2023-07-20T07:42:57;3;3;
64114;PMS5003;62188;35.640;139.748;2023-07-20T07:45:23;8;8;
64114;PMS5003;62188;35.640;139.748;2023-07-20T07:47:48;6;5;
64114;PMS5003;62188;35.640;139.748;2023-07-20T07:50:13;6;6;
64114;PMS5003;62188;35.640;139.748;2023-07-20T07:52:39;7;7;
64114;PMS5003;62188;35.640;139.748;2023-07-20T07:55:04;6;6;
64114;PMS5003;62188;35.640;139.748;2023-07-20T07:57:29;8;7;
64114;PMS5003;62188;35.640;139.748;2023-07-20T07:59:55;6;6;
64114;PMS5003;62188;35.640;139.748;2023-07-20T08:02:19;6;6;
64114;PMS5003;62188;35.640;139.748;2023-07-20T08:04:45;5;5;
64114;PMS5003;62188;35.640;139.748;2023-07-20T08:07:10;6;6;
64114;PMS5003;62188;35.640;139.748;2023-07-20T08:09:35;7;7;
64114;PMS5003;62188;35.640;139.748;2023-07-20T08:12:01;6;6;
64114;PMS5003;62188;35.640;139.748;2023-07-20T08:14:26;6;5;
64114;PMS5003;62188;35.640;139.748;2023-07-20T08:16:51;6;5;
64114;PMS5003;62188;35.640;139.748;2023-07-20T08:19:17;5;5;
64114;PMS5003;62188;35.640;139.748;2023-07-20T08:21:42;6;6;
64114;PMS5003;62188;35.640;139.748;2023-07-20T08:24:08;5;5;
64114;PMS5003;62188;35.640;139.748;2023-07-20T08:26:33;6;6;
64114;PMS5003;62188;35.640;139.748;2023-07-20T08:28:58;7;6;
64114;PMS5003;62188;35.640;139.748;2023-07-20T08:31:23;7;5;
64114;PMS5003;62188;35.640;139.748;2023-07-20T08:33:50;6;6;
64114;PMS5003;62188;35.640;139.748;2023-07-20T08:36:14;7;7;
64114;PMS5003;62188;35.640;139.748;2023-07-20T08:38:39;6;6;
64114;PMS5003;62188;35.640;139.748;2023-07-20T08:41:04;7;7;
64114;PMS5003;62188;35.640;139.748;2023-07-20T08:43:29;5;5;
64114;PMS5003;62188;35.640;139.748;2023-07-20T08:45:55;5;5;
64114;PMS5003;62188;35.640;139.748;2023-07-20T08:48:20;4;4;
64114;PMS5003;62188;35.640;139.748;2023-07-20T08:50:52;9;6;
64114;PMS5003;62188;35.640;139.748;2023-07-20T08:53:11;5;5;
64114;PMS5003;62188;35.640;139.748;2023-07-20T08:55:42;6;6;
64114;PMS5003;62188;35.640;139.748;2023-07-20T08:58:02;5;5;
64114;PMS5003;62188;35.640;139.748;2023-07-20T09:00:27;6;6;
64114;PMS5003;62188;35.640;139.748;2023-07-20T09:02:53;7;7;
64114;PMS5003;62188;35.640;139.748;2023-07-20T09:05:18;7;6;
64114;PMS5003;62188;35.640;139.748;2023-07-20T09:07:43;7;6;
64114;PMS5003;62188;35.640;139.748;2023-07-20T09:10:08;6;6;
64114;PMS5003;62188;35.640;139.748;2023-07-20T09:12:34;4;4;
64114;PMS5003;62188;35.640;139.748;2023-07-20T09:14:58;5;5;
64114;PMS5003;62188;35.640;139.748;2023-07-20T09:17:24;6;6;
64114;PMS5003;62188;35.640;139.748;2023-07-20T09:19:50;7;7;
64114;PMS5003;62188;35.640;139.748;2023-07-20T09:22:14;6;6;
64114;PMS5003;62188;35.640;139.748;2023-07-20T09:24:40;6;6;
64114;PMS5003;62188;35.640;139.748;2023-07-20T09:27:05;6;6;
64114;PMS5003;62188;35.640;139.748;2023-07-20T09:29:30;5;5;
64114;PMS5003;62188;35.640;139.748;2023-07-20T09:31:58;7;6;
64114;PMS5003;62188;35.640;139.748;2023-07-20T09:34:21;5;5;
64114;PMS5003;62188;35.640;139.748;2023-07-20T09:36:46;7;5;
64114;PMS5003;62188;35.640;139.748;2023-07-20T09:39:12;6;5;
64114;PMS5003;62188;35.640;139.748;2023-07-20T09:41:41;7;7;
64114;PMS5003;62188;35.640;139.748;2023-07-20T09:44:02;7;6;
64114;PMS5003;62188;35.640;139.748;2023-07-20T09:48:52;6;6;
64114;PMS5003;62188;35.640;139.748;2023-07-20T09:51:18;5;5;
64114;PMS5003;62188;35.640;139.748;2023-07-20T09:53:43;6;6;
64114;PMS5003;62188;35.640;139.748;2023-07-20T09:56:08;6;6;
64114;PMS5003;62188;35.640;139.748;2023-07-20T09:58:34;6;6;
64114;PMS5003;62188;35.640;139.748;2023-07-20T10:00:59;7;7;
64114;PMS5003;62188;35.640;139.748;2023-07-20T10:03:26;9;8;
64114;PMS5003;62188;35.640;139.748;2023-07-20T10:05:52;8;8;
64114;PMS5003;62188;35.640;139.748;2023-07-20T10:08:15;7;7;
64114;PMS5003;62188;35.640;139.748;2023-07-20T10:10:41;7;7;
64114;PMS5003;62188;35.640;139.748;2023-07-20T10:13:05;5;5;
64114;PMS5003;62188;35.640;139.748;2023-07-20T10:15:34;6;6;
64114;PMS5003;62188;35.640;139.748;2023-07-20T10:17:59;7;6;
64114;PMS5003;62188;35.640;139.748;2023-07-20T10:20:21;7;7;
64114;PMS5003;62188;35.640;139.748;2023-07-20T10:22:47;7;6;
64114;PMS5003;62188;35.640;139.748;2023-07-20T10:25:12;6;6;
64114;PMS5003;62188;35.640;139.748;2023-07-20T10:27:37;7;7;
64114;PMS5003;62188;35.640;139.748;2023-07-20T10:30:02;7;7;
64114;PMS5003;62188;35.640;139.748;2023-07-20T10:32:28;6;5;
64114;PMS5003;62188;35.640;139.748;2023-07-20T10:34:54;7;7;
64114;PMS5003;62188;35.640;139.748;2023-07-20T10:39:45;7;6;
64114;PMS5003;62188;35.640;139.748;2023-07-20T10:42:10;8;8;
64114;PMS5003;62188;35.640;139.748;2023-07-20T10:44:37;7;6;
64114;PMS5003;62188;35.640;139.748;2023-07-20T10:47:01;7;7;
64114;PMS5003;62188;35.640;139.748;2023-07-20T10:49:26;7;7;
64114;PMS5003;62188;35.640;139.748;2023-07-20T10:51:55;6;6;
64114;PMS5003;62188;35.640;139.748;2023-07-20T10:56:43;6;6;
64114;PMS5003;62188;35.640;139.748;2023-07-20T10:59:17;7;6;
64114;PMS5003;62188;35.640;139.748;2023-07-20T11:01:36;7;7;
64114;PMS5003;62188;35.640;139.748;2023-07-20T11:03:59;7;7;
64114;PMS5003;62188;35.640;139.748;2023-07-20T11:06:32;6;6;
64114;PMS5003;62188;35.640;139.748;2023-07-20T11:08:54;7;7;
64114;PMS5003;62188;35.640;139.748;2023-07-20T11:11:23;8;6;
64114;PMS5003;62188;35.640;139.748;2023-07-20T11:13:40;8;6;
64114;PMS5003;62188;35.640;139.748;2023-07-20T11:16:05;6;6;
64114;PMS5003;62188;35.640;139.748;2023-07-20T11:18:30;7;6;
64114;PMS5003;62188;35.640;139.748;2023-07-20T11:20:56;5;5;
64114;PMS5003;62188;35.640;139.748;2023-07-20T11:23:21;5;4;
64114;PMS5003;62188;35.640;139.748;2023-07-20T11:25:46;6;5;
64114;PMS5003;62188;35.640;139.748;2023-07-20T11:28:12;5;5;
64114;PMS5003;62188;35.640;139.748;2023-07-20T11:30:37;7;6;
64114;PMS5003;62188;35.640;139.748;2023-07-20T11:33:02;8;6;
64114;PMS5003;62188;35.640;139.748;2023-07-20T11:35:28;6;5;
64114;PMS5003;62188;35.640;139.748;2023-07-20T11:37:53;6;6;
64114;PMS5003;62188;35.640;139.748;2023-07-20T11:40:18;7;6;
64114;PMS5003;62188;35.640;139.748;2023-07-20T11:42:43;7;6;
64114;PMS5003;62188;35.640;139.748;2023-07-20T11:45:09;8;7;
64114;PMS5003;62188;35.640;139.748;2023-07-20T11:47:34;6;6;
64114;PMS5003;62188;35.640;139.748;2023-07-20T11:50:03;6;6;
64114;PMS5003;62188;35.640;139.748;2023-07-20T11:52:25;6;6;
64114;PMS5003;62188;35.640;139.748;2023-07-20T11:54:50;5;5;
64114;PMS5003;62188;35.640;139.748;2023-07-20T11:57:16;10;9;
64114;PMS5003;62188;35.640;139.748;2023-07-20T11:59:40;7;7;
64114;PMS5003;62188;35.640;139.748;2023-07-20T12:02:06;9;8;
64114;PMS5003;62188;35.640;139.748;2023-07-20T12:04:31;6;6;
64114;PMS5003;62188;35.640;139.748;2023-07-20T12:06:57;8;8;
64114;PMS5003;62188;35.640;139.748;2023-07-20T12:09:22;9;8;
64114;PMS5003;62188;35.640;139.748;2023-07-20T12:11:49;8;8;
64114;PMS5003;62188;35.640;139.748;2023-07-20T12:14:13;7;7;
64114;PMS5003;62188;35.640;139.748;2023-07-20T12:16:38;12;10;
64114;PMS5003;62188;35.640;139.748;2023-07-20T12:19:04;12;11;
64114;PMS5003;62188;35.640;139.748;2023-07-20T12:21:29;11;11;
64114;PMS5003;62188;35.640;139.748;2023-07-20T12:23:56;14;13;
64114;PMS5003;62188;35.640;139.748;2023-07-20T12:26:20;13;10;
64114;PMS5003;62188;35.640;139.748;2023-07-20T12:28:45;11;11;
64114;PMS5003;62188;35.640;139.748;2023-07-20T12:31:12;12;12;
64114;PMS5003;62188;35.640;139.748;2023-07-20T12:33:36;13;12;
64114;PMS5003;62188;35.640;139.748;2023-07-20T12:36:02;11;10;
64114;PMS5003;62188;35.640;139.748;2023-07-20T12:38:27;14;13;
64114;PMS5003;62188;35.640;139.748;2023-07-20T12:40:52;15;14;
64114;PMS5003;62188;35.640;139.748;2023-07-20T12:43:18;16;16;
64114;PMS5003;62188;35.640;139.748;2023-07-20T12:45:44;12;12;
64114;PMS5003;62188;35.640;139.748;2023-07-20T12:48:09;13;13;
64114;PMS5003;62188;35.640;139.748;2023-07-20T12:50:34;11;11;
64114;PMS5003;62188;35.640;139.748;2023-07-20T12:53:00;12;12;
64114;PMS5003;62188;35.640;139.748;2023-07-20T12:55:25;11;11;
64114;PMS5003;62188;35.640;139.748;2023-07-20T12:57:50;13;12;
64114;PMS5003;62188;35.640;139.748;2023-07-20T13:00:16;12;11;
64114;PMS5003;62188;35.640;139.748;2023-07-20T13:02:41;11;11;
64114;PMS5003;62188;35.640;139.748;2023-07-20T13:05:07;13;13;
64114;PMS5003;62188;35.640;139.748;2023-07-20T13:07:32;9;9;
64114;PMS5003;62188;35.640;139.748;2023-07-20T13:09:57;11;10;
64114;PMS5003;62188;35.640;139.748;2023-07-20T13:12:22;12;9;
64114;PMS5003;62188;35.640;139.748;2023-07-20T13:14:48;11;11;
64114;PMS5003;62188;35.640;139.748;2023-07-20T13:17:13;8;8;
64114;PMS5003;62188;35.640;139.748;2023-07-20T13:19:39;11;10;
64114;PMS5003;62188;35.640;139.748;2023-07-20T13:22:04;11;10;
64114;PMS5003;62188;35.640;139.748;2023-07-20T13:24:30;10;10;
64114;PMS5003;62188;35.640;139.748;2023-07-20T13:26:55;9;9;
64114;PMS5003;62188;35.640;139.748;2023-07-20T13:29:21;8;7;
64114;PMS5003;62188;35.640;139.748;2023-07-20T13:31:46;12;11;
64114;PMS5003;62188;35.640;139.748;2023-07-20T13:34:11;11;11;
64114;PMS5003;62188;35.640;139.748;2023-07-20T13:36:36;10;10;
64114;PMS5003;62188;35.640;139.748;2023-07-20T13:39:02;15;13;
64114;PMS5003;62188;35.640;139.748;2023-07-20T13:41:27;13;13;
64114;PMS5003;62188;35.640;139.748;2023-07-20T13:43:52;15;14;
64114;PMS5003;62188;35.640;139.748;2023-07-20T13:46:17;13;13;
64114;PMS5003;62188;35.640;139.748;2023-07-20T13:48:43;16;15;
64114;PMS5003;62188;35.640;139.748;2023-07-20T13:51:08;17;16;
64114;PMS5003;62188;35.640;139.748;2023-07-20T13:53:33;17;16;
64114;PMS5003;62188;35.640;139.748;2023-07-20T13:55:59;15;15;
64114;PMS5003;62188;35.640;139.748;2023-07-20T13:58:24;17;16;
64114;PMS5003;62188;35.640;139.748;2023-07-20T14:00:50;18;17;
64114;PMS5003;62188;35.640;139.748;2023-07-20T14:03:15;16;16;
64114;PMS5003;62188;35.640;139.748;2023-07-20T14:05:40;19;18;
64114;PMS5003;62188;35.640;139.748;2023-07-20T14:08:06;21;19;
64114;PMS5003;62188;35.640;139.748;2023-07-20T14:10:31;20;20;
64114;PMS5003;62188;35.640;139.748;2023-07-20T14:12:57;18;18;
64114;PMS5003;62188;35.640;139.748;2023-07-20T14:15:22;17;17;
64114;PMS5003;62188;35.640;139.748;2023-07-20T14:17:48;22;21;
64114;PMS5003;62188;35.640;139.748;2023-07-20T14:20:13;17;17;
64114;PMS5003;62188;35.640;139.748;2023-07-20T14:22:38;19;19;
64114;PMS5003;62188;35.640;139.748;2023-07-20T14:25:04;23;21;
64114;PMS5003;62188;35.640;139.748;2023-07-20T14:27:29;21;21;
64114;PMS5003;62188;35.640;139.748;2023-07-20T14:29:54;20;20;
64114;PMS5003;62188;35.640;139.748;2023-07-20T14:32:20;20;20;
64114;PMS5003;62188;35.640;139.748;2023-07-20T14:34:45;20;20;
64114;PMS5003;62188;35.640;139.748;2023-07-20T14:37:11;25;22;
64114;PMS5003;62188;35.640;139.748;2023-07-20T14:39:36;18;17;
64114;PMS5003;62188;35.640;139.748;2023-07-20T14:42:01;24;24;
64114;PMS5003;62188;35.640;139.748;2023-07-20T14:44:27;24;24;
64114;PMS5003;62188;35.640;139.748;2023-07-20T14:46:53;21;21;
64114;PMS5003;62188;35.640;139.748;2023-07-20T14:49:18;24;23;
64114;PMS5003;62188;35.640;139.748;2023-07-20T14:51:43;24;21;
64114;PMS5003;62188;35.640;139.748;2023-07-20T14:54:09;21;20;
64114;PMS5003;62188;35.640;139.748;2023-07-20T14:56:34;20;20;
64114;PMS5003;62188;35.640;139.748;2023-07-20T14:58:59;18;18;
64114;PMS5003;62188;35.640;139.748;2023-07-20T15:01:24;17;17;
64114;PMS5003;62188;35.640;139.748;2023-07-20T15:03:51;16;15;
64114;PMS5003;62188;35.640;139.748;2023-07-20T15:06:16;18;16;
64114;PMS5003;62188;35.640;139.748;2023-07-20T15:08:41;20;18;
64114;PMS5003;62188;35.640;139.748;2023-07-20T15:11:07;17;15;
64114;PMS5003;62188;35.640;139.748;2023-07-20T15:13:31;15;15;
64114;PMS5003;62188;35.640;139.748;2023-07-20T15:15:57;16;15;
64114;PMS5003;62188;35.640;139.748;2023-07-20T15:18:23;13;13;
64114;PMS5003;62188;35.640;139.748;2023-07-20T15:20:48;13;12;
64114;PMS5003;62188;35.640;139.748;2023-07-20T15:23:14;14;14;
64114;PMS5003;62188;35.640;139.748;2023-07-20T15:25:39;16;14;
64114;PMS5003;62188;35.640;139.748;2023-07-20T15:28:04;17;17;
64114;PMS5003;62188;35.640;139.748;2023-07-20T15:30:29;18;17;
64114;PMS5003;62188;35.640;139.748;2023-07-20T15:32:55;12;12;
64114;PMS5003;62188;35.640;139.748;2023-07-20T15:35:21;13;13;
64114;PMS5003;62188;35.640;139.748;2023-07-20T15:37:46;16;15;
64114;PMS5003;62188;35.640;139.748;2023-07-20T15:40:11;15;14;
64114;PMS5003;62188;35.640;139.748;2023-07-20T15:42:36;13;13;
64114;PMS5003;62188;35.640;139.748;2023-07-20T15:45:01;12;10;
64114;PMS5003;62188;35.640;139.748;2023-07-20T15:47:27;11;10;
64114;PMS5003;62188;35.640;139.748;2023-07-20T15:49:52;10;10;
64114;PMS5003;62188;35.640;139.748;2023-07-20T15:52:17;10;10;
64114;PMS5003;62188;35.640;139.748;2023-07-20T15:54:43;13;11;
64114;PMS5003;62188;35.640;139.748;2023-07-20T15:57:08;11;10;
64114;PMS5003;62188;35.640;139.748;2023-07-20T15:59:34;12;11;
64114;PMS5003;62188;35.640;139.748;2023-07-20T16:01:59;9;9;
64114;PMS5003;62188;35.640;139.748;2023-07-20T16:04:25;13;10;
64114;PMS5003;62188;35.640;139.748;2023-07-20T16:06:50;10;9;
64114;PMS5003;62188;35.640;139.748;2023-07-20T16:09:15;11;10;